Antioch, California
Current Conditions -  °F | °C
As of 2:53 PM on Monday 22 Dec 2014 (Local Time) from KCCR Reporting Station
Clear Clear  
Wind Chill: 66°   Ceiling: Unl
Heat Index: 66°   Visibility: 10mi
Dew Point: 55°   Wind: 3mph
Humidity: 68%   Direction: 230°SW
Pressure: 30.18"   Gusts: NA
Location:  38.02°N, 121.81°W
Report Text: KCCR 222253Z 23003KT 10SM CLR 19/13 A3018 RMK AO2 SLP207 T01890128
Loading
Personal Weather Stations






























Interactive Weather Map New forecast layout! Learn more

10-Day Weather Forecast

Advertisements
Track Severe Weather on mobile